createdAt,value
2019-02-06T00:04:08.231Z,101841.70
2019-02-06T00:09:10.663Z,101838.74
2019-02-06T00:14:13.125Z,101838.08
2019-02-06T00:19:15.548Z,101831.50
2019-02-06T00:24:18.007Z,101829.84
2019-02-06T00:29:20.441Z,101825.94
2019-02-06T00:34:22.887Z,101825.42
2019-02-06T00:39:25.331Z,101820.81
2019-02-06T00:44:27.815Z,101821.20
2019-02-06T00:49:30.275Z,101821.05
2019-02-06T00:54:33.454Z,101827.38
2019-02-06T00:59:35.907Z,101828.98
2019-02-06T01:04:38.472Z,101824.64
2019-02-06T01:09:40.912Z,101823.13
2019-02-06T01:14:43.351Z,101821.27
2019-02-06T01:19:45.793Z,101822.14
2019-02-06T01:24:48.252Z,101825.38
2019-02-06T01:29:50.689Z,101821.60
2019-02-06T01:34:53.141Z,101827.16
2019-02-06T01:39:55.588Z,101829.58
2019-02-06T01:44:58.132Z,101837.48
2019-02-06T01:50:00.520Z,101835.75
2019-02-06T01:55:02.970Z,101841.34
2019-02-06T02:00:20.510Z,101841.61
2019-02-06T02:05:22.960Z,101847.88
2019-02-06T02:10:25.433Z,101837.75
2019-02-06T02:15:28.037Z,101842.81
2019-02-06T02:20:30.488Z,101841.73
2019-02-06T02:25:32.923Z,101837.94
2019-02-06T02:30:41.465Z,101833.64
2019-02-06T02:35:43.906Z,101830.98
2019-02-06T02:40:46.783Z,101822.61
2019-02-06T02:45:49.232Z,101827.09
2019-02-06T02:50:51.669Z,101831.13
2019-02-06T02:55:54.089Z,101836.39
2019-02-06T03:01:05.735Z,101830.75
2019-02-06T03:06:08.063Z,101826.86
2019-02-06T03:11:10.508Z,101818.37
2019-02-06T03:16:12.946Z,101812.98
2019-02-06T03:21:15.499Z,101812.89
2019-02-06T03:26:17.941Z,101815.69
2019-02-06T03:31:20.390Z,101808.43
2019-02-06T03:36:22.823Z,101809.55
2019-02-06T03:41:25.265Z,101805.11
2019-02-06T03:46:27.706Z,101800.72
2019-02-06T03:51:30.160Z,101797.36
2019-02-06T03:56:32.604Z,101800.76
2019-02-06T04:01:35.071Z,101791.98
2019-02-06T04:06:37.517Z,101795.48
2019-02-06T04:11:39.966Z,101790.52
2019-02-06T04:16:42.456Z,101799.16
2019-02-06T04:21:44.861Z,101796.31
2019-02-06T04:26:47.302Z,101794.30
2019-02-06T04:31:49.736Z,101796.05
2019-02-06T04:36:52.187Z,101799.43
2019-02-06T04:41:54.635Z,101792.28
2019-02-06T04:46:57.070Z,101793.50
2019-02-06T04:51:59.517Z,101798.88
2019-02-06T04:57:01.973Z,101797.41
2019-02-06T05:02:04.411Z,101798.92
2019-02-06T05:07:18.367Z,101788.80
2019-02-06T05:12:09.704Z,101783.57
2019-02-06T05:17:11.750Z,101789.09
2019-02-06T05:22:14.198Z,101794.22
2019-02-06T05:27:16.651Z,101787.36
2019-02-06T05:32:19.270Z,101793.14
2019-02-06T05:37:31.652Z,101795.13
2019-02-06T05:42:24.144Z,101799.89
2019-02-06T05:47:26.598Z,101798.95
2019-02-06T05:52:29.139Z,101804.20
2019-02-06T05:57:31.593Z,101798.14
2019-02-06T06:02:34.046Z,101797.20
2019-02-06T06:07:44.449Z,101800.03
2019-02-06T06:12:38.949Z,101790.31
2019-02-06T06:17:41.440Z,101802.73
2019-02-06T06:22:43.948Z,101791.00
2019-02-06T06:27:46.387Z,101781.16
2019-02-06T06:32:48.980Z,101781.30
2019-02-06T06:38:01.264Z,101790.33
2019-02-06T06:42:53.723Z,101796.25
2019-02-06T06:47:56.165Z,101804.73
2019-02-06T06:52:58.613Z,101807.41
2019-02-06T06:58:01.051Z,101811.85
2019-02-06T07:03:03.504Z,101817.52
2019-02-06T07:08:09.567Z,101808.59
2019-02-06T07:13:08.379Z,101807.77
2019-02-06T07:18:10.818Z,101814.89
2019-02-06T07:23:13.271Z,101812.13
2019-02-06T07:28:15.712Z,101819.92
2019-02-06T07:33:18.157Z,101824.20
2019-02-06T07:38:24.395Z,101824.94
2019-02-06T07:43:23.077Z,101827.40
2019-02-06T07:48:25.588Z,101827.23
2019-02-06T07:53:28.035Z,101833.75
2019-02-06T07:58:30.508Z,101832.20
2019-02-06T08:03:32.951Z,101831.45
2019-02-06T08:08:36.436Z,101839.69
2019-02-06T08:13:37.849Z,101839.31
2019-02-06T08:18:40.304Z,101842.27
2019-02-06T08:23:42.855Z,101847.58
2019-02-06T08:28:45.186Z,101846.34
2019-02-06T08:33:47.637Z,101845.55
2019-02-06T08:38:50.474Z,101842.99
2019-02-06T08:43:52.523Z,101843.33
2019-02-06T08:48:54.975Z,101848.47
2019-02-06T08:53:57.425Z,101845.16
2019-02-06T08:58:59.880Z,101840.56
2019-02-06T09:04:02.328Z,101838.76
2019-02-06T09:09:04.776Z,101845.91
2019-02-06T09:14:07.221Z,101841.27
2019-02-06T09:19:09.655Z,101845.95
2019-02-06T09:24:12.101Z,101853.66
2019-02-06T09:29:14.543Z,101842.23
2019-02-06T09:34:16.996Z,101841.85
2019-02-06T09:39:19.657Z,101833.84
2019-02-06T09:44:22.107Z,101832.55
2019-02-06T09:49:24.551Z,101831.52
2019-02-06T09:54:27.004Z,101831.23
2019-02-06T09:59:29.470Z,101823.83
2019-02-06T10:04:31.920Z,101821.06
2019-02-06T10:09:34.384Z,101816.30
2019-02-06T10:14:36.828Z,101821.58
2019-02-06T10:19:42.407Z,101820.01
2019-02-06T10:24:42.228Z,101810.63
2019-02-06T10:29:44.689Z,101805.09
2019-02-06T10:34:47.136Z,101803.02
2019-02-06T10:39:49.585Z,101798.37
2019-02-06T10:44:52.032Z,101798.45
2019-02-06T10:49:54.483Z,101797.41
2019-02-06T10:54:56.949Z,101795.06
2019-02-06T10:59:59.387Z,101775.71
2019-02-06T11:05:01.840Z,101762.05
2019-02-06T11:10:04.295Z,101750.56
2019-02-06T11:15:06.724Z,101741.03
2019-02-06T11:20:09.246Z,101736.23
2019-02-06T11:25:11.685Z,101732.87
2019-02-06T11:30:16.839Z,101719.16
2019-02-06T11:35:19.283Z,101710.94
2019-02-06T11:40:21.731Z,101695.63
2019-02-06T11:45:24.177Z,101686.22
2019-02-06T11:50:32.595Z,101673.69
2019-02-06T11:55:35.043Z,101664.96
2019-02-06T12:00:40.417Z,101662.58
2019-02-06T12:05:42.856Z,101657.72
2019-02-06T12:10:45.303Z,101653.22
2019-02-06T12:15:47.742Z,101642.34
2019-02-06T12:20:50.197Z,101632.67
2019-02-06T12:25:52.632Z,101627.06
2019-02-06T12:30:56.190Z,101614.38
2019-02-06T12:35:57.540Z,101604.89
2019-02-06T12:40:59.993Z,101607.84
2019-02-06T12:46:02.464Z,101596.98
2019-02-06T12:51:04.981Z,101592.04
2019-02-06T12:56:07.418Z,101586.05
2019-02-06T13:01:09.898Z,101573.27
2019-02-06T13:06:12.354Z,101564.35
2019-02-06T13:11:14.780Z,101555.22
2019-02-06T13:16:17.235Z,101545.95
2019-02-06T13:21:19.708Z,101540.67
2019-02-06T13:26:22.174Z,101533.42
2019-02-06T13:31:24.619Z,101526.77
2019-02-06T13:36:27.078Z,101520.80
2019-02-06T13:41:29.533Z,101522.33
2019-02-06T13:46:31.982Z,101517.87
2019-02-06T13:51:34.425Z,101502.89
2019-02-06T13:56:36.886Z,101499.39
2019-02-06T14:01:39.334Z,101486.80
2019-02-06T14:06:41.898Z,101479.35
2019-02-06T14:11:44.352Z,101475.11
2019-02-06T14:16:46.794Z,101471.34
2019-02-06T14:21:49.257Z,101458.61
2019-02-06T14:26:51.698Z,101445.22
2019-02-06T14:32:15.528Z,101442.98
2019-02-06T14:37:33.711Z,101435.66
2019-02-06T14:43:00.825Z,101420.41
2019-02-06T14:48:09.075Z,101411.47
2019-02-06T14:53:14.325Z,101404.05
2019-02-06T14:58:37.893Z,101396.52
2019-02-06T15:03:43.171Z,101390.55
2019-02-06T15:08:45.628Z,101391.28
2019-02-06T15:14:18.940Z,101378.31
2019-02-06T15:19:24.077Z,101375.91
2019-02-06T15:24:45.134Z,101374.06
2019-02-06T15:29:56.345Z,101385.11
2019-02-06T15:35:07.950Z,101368.30
2019-02-06T15:40:34.446Z,101368.87
2019-02-06T15:45:52.128Z,101361.11
2019-02-06T15:51:06.505Z,101353.64
2019-02-06T15:56:08.971Z,101348.75
2019-02-06T16:01:26.753Z,101351.45
2019-02-06T16:06:35.001Z,101355.45
2019-02-06T16:11:42.410Z,101359.20
2019-02-06T16:17:10.920Z,101352.67
2019-02-06T16:22:22.567Z,101341.44
2019-02-06T16:27:28.032Z,101348.30
2019-02-06T16:32:36.502Z,101336.23
2019-02-06T16:37:57.263Z,101337.64
2019-02-06T16:43:23.893Z,101326.39
2019-02-06T16:48:29.286Z,101326.78
2019-02-06T16:53:53.601Z,101318.66
2019-02-06T16:58:59.043Z,101325.20
2019-02-06T17:04:22.896Z,101318.25
2019-02-06T17:09:40.451Z,101320.62
2019-02-06T17:14:48.875Z,101309.77
2019-02-06T17:20:16.110Z,101309.36
2019-02-06T17:25:18.563Z,101313.78
2019-02-06T17:30:23.707Z,101312.53
2019-02-06T17:35:41.303Z,101301.78
2019-02-06T17:40:43.764Z,101304.19
2019-02-06T17:46:01.169Z,101302.80
2019-02-06T17:51:21.796Z,101297.61
2019-02-06T17:56:24.243Z,101289.23
2019-02-06T18:01:26.730Z,101290.40
2019-02-06T18:06:29.192Z,101289.66
2019-02-06T18:11:31.652Z,101291.00
2019-02-06T18:16:34.102Z,101286.50
2019-02-06T18:21:36.561Z,101271.61
2019-02-06T18:26:39.045Z,101256.11
2019-02-06T18:31:41.512Z,101261.48
2019-02-06T18:36:44.033Z,101264.02
2019-02-06T18:41:46.535Z,101257.13
2019-02-06T18:46:48.979Z,101252.95
2019-02-06T18:51:51.454Z,101247.27
2019-02-06T18:56:53.908Z,101246.27
2019-02-06T19:01:56.395Z,101239.92
2019-02-06T19:06:58.842Z,101240.87
2019-02-06T19:12:01.273Z,101232.52
2019-02-06T19:17:03.756Z,101226.58
2019-02-06T19:22:06.216Z,101232.82
2019-02-06T19:27:08.700Z,101217.70
2019-02-06T19:32:11.169Z,101208.06
2019-02-06T19:37:13.638Z,101203.59
2019-02-06T19:42:16.090Z,101203.48
2019-02-06T19:47:18.658Z,101203.07
2019-02-06T19:52:21.058Z,101195.72
2019-02-06T19:57:26.043Z,101190.55
2019-02-06T20:02:26.017Z,101183.14
2019-02-06T20:07:28.487Z,101175.63
2019-02-06T20:12:30.981Z,101168.00
2019-02-06T20:17:33.435Z,101149.97
2019-02-06T20:22:35.890Z,101149.94
2019-02-06T20:27:38.353Z,101137.42
2019-02-06T20:32:40.837Z,101147.05
2019-02-06T20:37:43.344Z,101147.55
2019-02-06T20:42:45.797Z,101149.98
2019-02-06T20:47:48.270Z,101150.65
2019-02-06T20:52:50.731Z,101140.83
2019-02-06T20:57:53.190Z,101146.49
2019-02-06T21:02:55.644Z,101136.75
2019-02-06T21:07:58.103Z,101143.58
2019-02-06T21:13:00.560Z,101139.68
2019-02-06T21:18:03.027Z,101137.06
2019-02-06T21:23:05.489Z,101133.93
2019-02-06T21:28:07.958Z,101139.94
2019-02-06T21:33:10.427Z,101141.02
2019-02-06T21:38:12.869Z,101137.85
2019-02-06T21:43:15.369Z,101148.84
2019-02-06T21:48:17.784Z,101137.14
2019-02-06T21:53:20.244Z,101137.03
2019-02-06T21:58:22.791Z,101124.87
2019-02-06T22:03:25.255Z,101117.95
2019-02-06T22:08:27.905Z,101119.22
2019-02-06T22:13:30.337Z,101112.48
2019-02-06T22:18:32.824Z,101102.19
2019-02-06T22:23:36.047Z,101080.53
2019-02-06T22:28:38.516Z,101065.06
2019-02-06T22:33:40.959Z,101059.63
2019-02-06T22:38:45.985Z,101064.09
2019-02-06T22:43:48.428Z,101061.38
2019-02-06T22:48:50.888Z,101053.45
2019-02-06T22:53:53.372Z,101038.42
2019-02-06T22:58:55.812Z,101048.81
2019-02-06T23:03:58.261Z,101047.13
2019-02-06T23:09:00.706Z,101045.53
2019-02-06T23:14:03.163Z,101046.88
2019-02-06T23:19:05.646Z,101039.65
2019-02-06T23:24:08.084Z,101024.28
2019-02-06T23:29:10.552Z,101015.06
2019-02-06T23:34:12.994Z,100997.80
2019-02-06T23:39:15.446Z,100988.00
2019-02-06T23:44:28.341Z,100975.56
2019-02-06T23:49:20.323Z,100974.31
2019-02-06T23:54:22.789Z,100978.01
2019-02-06T23:59:25.246Z,100980.70
